createdAt,value
2023-05-12T00:02:10.979Z,6.25
2023-05-12T00:04:40.259Z,6.40
2023-05-12T00:07:08.811Z,6.50
2023-05-12T00:09:36.403Z,6.18
2023-05-12T00:12:04.358Z,6.07
2023-05-12T00:14:31.893Z,6.10
2023-05-12T00:16:59.426Z,6.10
2023-05-12T00:19:28.266Z,6.70
2023-05-12T00:21:55.839Z,6.07
2023-05-12T00:24:23.356Z,6.17
2023-05-12T00:26:50.862Z,6.00
2023-05-12T00:29:18.918Z,5.85
2023-05-12T00:31:46.596Z,5.75
2023-05-12T00:34:14.264Z,5.70
2023-05-12T00:36:43.224Z,5.40
2023-05-12T00:39:10.816Z,6.00
2023-05-12T00:41:38.398Z,5.68
2023-05-12T00:44:06.487Z,5.90
2023-05-12T00:46:34.346Z,6.03
2023-05-12T00:49:02.352Z,5.83
2023-05-12T00:51:30.003Z,5.63
2023-05-12T00:53:59.905Z,5.47
2023-05-12T00:56:27.790Z,5.57
2023-05-12T00:58:55.924Z,4.95
2023-05-12T01:01:23.875Z,5.37
2023-05-12T01:03:54.575Z,5.40
2023-05-12T01:06:28.769Z,5.05
2023-05-12T01:08:56.968Z,5.45
2023-05-12T01:11:26.162Z,5.47
2023-05-12T01:13:53.717Z,5.23
2023-05-12T01:16:24.908Z,5.18
2023-05-12T01:18:56.948Z,5.35
2023-05-12T01:21:24.870Z,5.18
2023-05-12T01:23:59.339Z,4.85
2023-05-12T01:26:32.303Z,5.10
2023-05-12T01:29:02.302Z,5.10
2023-05-12T01:31:30.048Z,4.90
2023-05-12T01:33:58.268Z,4.90
2023-05-12T01:36:26.056Z,5.10
2023-05-12T01:38:53.642Z,5.37
2023-05-12T01:41:21.236Z,4.95
2023-05-12T01:43:50.250Z,4.80
2023-05-12T01:46:18.493Z,5.35
2023-05-12T01:48:46.413Z,5.47
2023-05-12T01:51:14.424Z,5.33
2023-05-12T01:53:42.250Z,5.65
2023-05-12T01:56:10.505Z,5.40
2023-05-12T01:58:38.189Z,5.10
2023-05-12T02:01:07.346Z,5.22
2023-05-12T02:03:35.032Z,5.27
2023-05-12T02:06:02.686Z,5.57
2023-05-12T02:08:30.772Z,5.00
2023-05-12T02:11:06.044Z,4.75
2023-05-12T02:13:34.042Z,4.88
2023-05-12T02:16:02.055Z,4.97
2023-05-12T02:18:31.691Z,5.28
2023-05-12T02:20:59.314Z,5.20
2023-05-12T02:23:26.872Z,5.53
2023-05-12T02:25:54.659Z,5.10
2023-05-12T02:28:22.220Z,4.83
2023-05-12T02:30:52.855Z,5.32
2023-05-12T02:33:22.013Z,4.95
2023-05-12T02:35:51.107Z,5.03
2023-05-12T02:38:18.719Z,5.13
2023-05-12T02:40:47.233Z,5.10
2023-05-12T02:43:16.009Z,5.20
2023-05-12T02:45:44.007Z,5.07
2023-05-12T02:48:11.907Z,5.10
2023-05-12T02:50:39.449Z,5.18
2023-05-12T02:53:08.332Z,5.07
2023-05-12T02:55:35.857Z,5.00
2023-05-12T02:58:03.456Z,5.35
2023-05-12T03:00:31.294Z,5.30
2023-05-12T03:02:58.932Z,4.93
2023-05-12T03:05:26.742Z,5.47
2023-05-12T03:07:54.811Z,4.90
2023-05-12T03:10:23.759Z,4.72
2023-05-12T03:12:51.361Z,5.07
2023-05-12T03:15:18.961Z,5.15
2023-05-12T03:17:46.586Z,5.27
2023-05-12T03:20:14.179Z,4.97
2023-05-12T03:22:42.152Z,5.35
2023-05-12T03:25:11.202Z,5.28
2023-05-12T03:27:40.047Z,5.03
2023-05-12T03:30:09.478Z,5.47
2023-05-12T03:32:39.213Z,5.40
2023-05-12T03:35:09.413Z,5.10
2023-05-12T03:37:37.392Z,4.93
2023-05-12T03:40:06.956Z,4.88
2023-05-12T03:42:34.522Z,5.10
2023-05-12T03:45:03.399Z,5.07
2023-05-12T03:47:31.149Z,5.25
2023-05-12T03:49:59.084Z,5.22
2023-05-12T03:52:26.886Z,5.13
2023-05-12T03:54:54.688Z,5.00
2023-05-12T03:57:22.286Z,4.97
2023-05-12T03:59:49.899Z,5.68
2023-05-12T04:02:18.881Z,5.10
2023-05-12T04:04:46.654Z,5.20
2023-05-12T04:07:15.691Z,5.10
2023-05-12T04:09:43.951Z,5.50
2023-05-12T04:12:11.848Z,5.13
2023-05-12T04:14:43.103Z,5.32
2023-05-12T04:17:11.071Z,5.22
2023-05-12T04:19:39.955Z,5.30
2023-05-12T04:22:07.524Z,4.70
2023-05-12T04:24:35.090Z,5.30
2023-05-12T04:27:02.665Z,5.72
2023-05-12T04:29:30.238Z,5.50
2023-05-12T04:31:57.846Z,5.00
2023-05-12T04:34:25.781Z,5.43
2023-05-12T04:36:55.363Z,5.57
2023-05-12T04:39:23.111Z,5.72
2023-05-12T04:41:50.724Z,5.50
2023-05-12T04:44:19.475Z,5.03
2023-05-12T04:46:47.002Z,5.32
2023-05-12T04:49:14.593Z,5.80
2023-05-12T04:51:44.358Z,6.00
2023-05-12T04:54:13.227Z,5.50
2023-05-12T04:56:41.252Z,5.67
2023-05-12T04:59:08.947Z,5.38
2023-05-12T05:01:36.696Z,5.15
2023-05-12T05:04:04.664Z,5.20
2023-05-12T05:06:32.333Z,5.05
2023-05-12T05:09:01.089Z,5.30
2023-05-12T05:11:30.736Z,5.05
2023-05-12T05:13:58.308Z,5.60
2023-05-12T05:16:26.263Z,5.40
2023-05-12T05:18:53.913Z,5.47
2023-05-12T05:21:21.462Z,5.60
2023-05-12T05:23:49.125Z,6.95
2023-05-12T05:26:17.155Z,5.75
2023-05-12T05:28:46.154Z,5.63
2023-05-12T05:31:17.000Z,5.22
2023-05-12T05:33:45.023Z,5.63
2023-05-12T05:36:13.536Z,5.78
2023-05-12T05:38:41.065Z,5.43
2023-05-12T05:41:09.769Z,5.30
2023-05-12T05:43:37.648Z,5.40
2023-05-12T05:46:06.751Z,5.77
2023-05-12T05:48:36.268Z,5.88
2023-05-12T05:51:04.943Z,5.60
2023-05-12T05:53:33.266Z,6.20
2023-05-12T05:56:01.342Z,5.72
2023-05-12T05:58:29.016Z,5.83
2023-05-12T06:00:56.873Z,5.57
2023-05-12T06:03:25.883Z,5.78
2023-05-12T06:05:53.785Z,5.68
2023-05-12T06:08:22.140Z,5.35
2023-05-12T06:10:49.703Z,6.00
2023-05-12T06:13:19.064Z,5.90
2023-05-12T06:15:46.695Z,6.10
2023-05-12T06:18:14.271Z,6.00
2023-05-12T06:20:43.216Z,6.20
2023-05-12T06:23:10.793Z,6.00
2023-05-12T06:25:39.082Z,5.80
2023-05-12T06:28:06.962Z,5.50
2023-05-12T06:30:35.546Z,5.93
2023-05-12T06:33:03.293Z,6.20
2023-05-12T06:35:30.926Z,5.40
2023-05-12T06:37:59.845Z,5.18
2023-05-12T06:40:27.460Z,5.40
2023-05-12T06:42:55.021Z,5.63
2023-05-12T06:45:23.367Z,6.00
2023-05-12T06:47:51.123Z,6.03
2023-05-12T06:50:19.443Z,5.50
2023-05-12T06:52:52.158Z,5.40
2023-05-12T06:55:22.527Z,5.60
2023-05-12T06:57:51.495Z,5.20
2023-05-12T07:00:19.674Z,5.00
2023-05-12T07:02:47.252Z,5.40
2023-05-12T07:05:14.855Z,6.40
2023-05-12T07:07:42.464Z,5.57
2023-05-12T07:10:10.381Z,5.53
2023-05-12T07:12:39.384Z,5.90
2023-05-12T07:15:08.404Z,5.10
2023-05-12T07:17:36.157Z,5.38
2023-05-12T07:20:04.853Z,5.45
2023-05-12T07:22:33.225Z,5.38
2023-05-12T07:25:01.019Z,5.67
2023-05-12T07:27:28.568Z,5.45
2023-05-12T07:29:57.413Z,5.40
2023-05-12T07:32:26.995Z,5.20
2023-05-12T07:34:54.606Z,5.15
2023-05-12T07:37:22.136Z,5.50
2023-05-12T07:39:49.741Z,5.47
2023-05-12T07:42:17.289Z,5.20
2023-05-12T07:44:44.897Z,5.53
2023-05-12T07:47:13.880Z,5.30
2023-05-12T07:49:41.443Z,5.30
2023-05-12T07:52:08.933Z,5.40
2023-05-12T07:54:36.446Z,5.05
2023-05-12T07:57:04.144Z,5.20
2023-05-12T07:59:31.891Z,5.07
2023-05-12T08:01:59.545Z,5.20
2023-05-12T08:04:28.686Z,5.90
2023-05-12T08:06:56.336Z,5.07
2023-05-12T08:09:23.814Z,5.63
2023-05-12T08:11:51.850Z,4.72
2023-05-12T08:14:19.471Z,5.20
2023-05-12T08:16:47.194Z,4.97
2023-05-12T08:19:14.896Z,5.10
2023-05-12T08:21:43.781Z,5.57
2023-05-12T08:24:11.334Z,4.95
2023-05-12T08:26:38.850Z,5.07
2023-05-12T08:29:08.526Z,5.05
2023-05-12T08:31:37.559Z,4.93
2023-05-12T08:34:10.476Z,5.60
2023-05-12T08:36:39.072Z,5.43
2023-05-12T08:39:08.853Z,5.03
2023-05-12T08:41:44.354Z,5.45
2023-05-12T08:44:12.480Z,4.88
2023-05-12T08:46:40.644Z,4.90
2023-05-12T08:49:15.571Z,4.93
2023-05-12T08:51:49.942Z,4.57
2023-05-12T08:54:28.388Z,4.68
2023-05-12T08:59:26.999Z,4.63
2023-05-12T09:01:56.257Z,4.60
2023-05-12T09:04:24.029Z,4.13
2023-05-12T09:06:54.355Z,4.00
2023-05-12T09:09:26.247Z,3.90
2023-05-12T09:11:57.841Z,4.10
2023-05-12T09:14:26.770Z,4.32
2023-05-12T09:16:59.568Z,4.00
2023-05-12T09:19:27.152Z,4.25
2023-05-12T09:21:55.234Z,4.15
2023-05-12T09:24:36.370Z,4.30
2023-05-12T09:27:04.798Z,4.60
2023-05-12T09:29:37.470Z,3.63
2023-05-12T09:32:09.943Z,3.95
2023-05-12T09:34:40.740Z,3.70
2023-05-12T09:37:09.003Z,4.25
2023-05-12T09:39:38.141Z,3.90
2023-05-12T09:42:12.607Z,3.80
2023-05-12T09:44:40.570Z,3.85
2023-05-12T09:47:10.110Z,3.70
2023-05-12T09:49:38.136Z,4.00
2023-05-12T09:52:06.269Z,4.30
2023-05-12T09:54:34.693Z,3.97
2023-05-12T09:57:05.830Z,4.13
2023-05-12T09:59:36.043Z,4.05
2023-05-12T10:02:06.957Z,3.90
2023-05-12T10:04:41.545Z,4.00
2023-05-12T10:07:11.420Z,3.93
2023-05-12T10:09:42.090Z,4.40
2023-05-12T10:12:11.371Z,4.15
2023-05-12T10:14:39.658Z,4.32
2023-05-12T10:17:07.823Z,4.05
2023-05-12T10:19:36.679Z,4.10
2023-05-12T10:22:06.604Z,4.10
2023-05-12T10:24:36.547Z,4.38
2023-05-12T10:27:06.273Z,4.13
2023-05-12T10:29:36.616Z,4.53
2023-05-12T10:32:04.352Z,4.10
2023-05-12T10:34:34.684Z,3.97
2023-05-12T10:37:08.074Z,4.38
2023-05-12T10:39:35.757Z,4.25
2023-05-12T10:42:07.011Z,4.10
2023-05-12T10:44:36.278Z,4.17
2023-05-12T10:47:14.338Z,4.10
2023-05-12T10:49:42.194Z,4.43
2023-05-12T10:52:12.126Z,4.20
2023-05-12T10:54:44.085Z,4.18
2023-05-12T10:57:18.298Z,3.93
2023-05-12T10:59:53.015Z,3.90
2023-05-12T11:02:27.532Z,3.70
2023-05-12T11:04:58.018Z,3.70
2023-05-12T11:07:27.866Z,4.07
2023-05-12T11:09:59.089Z,3.70
2023-05-12T11:12:32.147Z,3.78
2023-05-12T11:15:02.636Z,3.55
2023-05-12T11:17:30.569Z,4.15
2023-05-12T11:19:58.501Z,3.50
2023-05-12T11:22:26.613Z,3.60
2023-05-12T11:24:54.251Z,3.55
2023-05-12T11:27:23.809Z,3.15
2023-05-12T11:29:58.832Z,3.25
2023-05-12T11:32:28.248Z,3.60
2023-05-12T11:34:55.898Z,3.40
2023-05-12T11:37:23.621Z,3.13
2023-05-12T11:39:52.853Z,3.30
2023-05-12T11:42:22.303Z,3.20
2023-05-12T11:44:51.863Z,3.20
2023-05-12T11:47:20.806Z,3.20
2023-05-12T11:49:51.633Z,3.33
2023-05-12T11:52:20.902Z,3.20
2023-05-12T11:54:49.655Z,3.03
2023-05-12T11:57:26.883Z,3.10
2023-05-12T11:59:58.894Z,3.10
2023-05-12T12:02:27.304Z,2.90
2023-05-12T12:04:56.464Z,3.05
2023-05-12T12:07:31.125Z,4.30
2023-05-12T12:09:59.118Z,3.13
2023-05-12T12:12:26.653Z,2.83
2023-05-12T12:14:56.567Z,3.20
2023-05-12T12:17:30.468Z,2.90
2023-05-12T12:19:59.391Z,3.00
2023-05-12T12:22:27.037Z,3.42
2023-05-12T12:24:54.621Z,2.90
2023-05-12T12:27:22.226Z,3.20
2023-05-12T12:29:50.161Z,3.20
2023-05-12T12:32:17.690Z,2.80
2023-05-12T12:34:46.267Z,2.80
2023-05-12T12:37:16.068Z,3.03
2023-05-12T12:39:43.659Z,3.17
2023-05-12T12:42:11.223Z,3.20
2023-05-12T12:44:39.311Z,2.97
2023-05-12T12:47:07.677Z,2.70
2023-05-12T12:49:35.440Z,3.10
2023-05-12T12:52:03.080Z,3.65
2023-05-12T12:54:31.973Z,3.20
2023-05-12T12:56:59.543Z,5.18
2023-05-12T12:59:27.752Z,3.30
2023-05-12T13:01:55.353Z,3.17
2023-05-12T13:04:23.282Z,3.30
2023-05-12T13:06:50.868Z,3.28
2023-05-12T13:09:19.896Z,3.00
2023-05-12T13:11:50.128Z,3.55
2023-05-12T13:14:17.694Z,3.20
2023-05-12T13:16:46.061Z,3.30
2023-05-12T13:19:13.681Z,3.10
2023-05-12T13:21:41.822Z,2.95
2023-05-12T13:24:09.571Z,3.00
2023-05-12T13:26:37.094Z,3.53
2023-05-12T13:29:05.998Z,3.10
2023-05-12T13:31:33.876Z,3.10
2023-05-12T13:34:01.704Z,2.75
2023-05-12T13:36:29.982Z,2.80
2023-05-12T13:38:57.607Z,3.07
2023-05-12T13:41:25.257Z,3.17
2023-05-12T13:43:52.948Z,3.15
2023-05-12T13:46:22.716Z,3.00
2023-05-12T13:48:52.220Z,2.70
2023-05-12T13:51:23.185Z,3.00
2023-05-12T13:53:50.744Z,2.85
2023-05-12T13:56:18.586Z,3.20
2023-05-12T13:58:46.305Z,3.40
2023-05-12T14:01:14.081Z,3.10
2023-05-12T14:03:43.502Z,3.10
2023-05-12T14:06:12.393Z,2.70
2023-05-12T14:08:39.989Z,3.13
2023-05-12T14:11:07.761Z,3.00
2023-05-12T14:13:35.685Z,3.40
2023-05-12T14:16:03.547Z,3.47
2023-05-12T14:18:31.273Z,3.13
2023-05-12T14:21:00.453Z,3.20
2023-05-12T14:23:28.235Z,3.15
2023-05-12T14:25:56.384Z,3.17
2023-05-12T14:28:24.092Z,3.67
2023-05-12T14:30:56.144Z,3.45
2023-05-12T14:33:23.679Z,3.35
2023-05-12T14:36:03.113Z,3.30
2023-05-12T14:38:35.923Z,3.60
2023-05-12T14:41:03.875Z,3.50
2023-05-12T14:43:31.793Z,3.47
2023-05-12T14:45:59.428Z,3.38
2023-05-12T14:48:27.142Z,3.80
2023-05-12T14:50:55.253Z,3.40
2023-05-12T14:53:23.602Z,3.33
2023-05-12T14:55:53.047Z,3.30
2023-05-12T14:58:21.827Z,3.42
2023-05-12T15:00:51.669Z,3.70
2023-05-12T15:03:20.598Z,3.33
2023-05-12T15:06:04.730Z,3.70
2023-05-12T15:08:33.729Z,3.60
2023-05-12T15:11:02.699Z,3.40
2023-05-12T15:13:30.516Z,3.72
2023-05-12T15:15:58.030Z,3.47
2023-05-12T15:18:25.785Z,3.40
2023-05-12T15:20:53.480Z,3.72
2023-05-12T15:23:21.320Z,3.67
2023-05-12T15:25:48.967Z,4.00
2023-05-12T15:28:18.169Z,3.40
2023-05-12T15:30:45.876Z,4.00
2023-05-12T15:33:13.487Z,3.92
2023-05-12T15:35:41.587Z,3.60
2023-05-12T15:38:09.269Z,3.83
2023-05-12T15:40:37.113Z,3.85
2023-05-12T15:43:04.972Z,3.70
2023-05-12T15:45:37.121Z,4.40
2023-05-12T15:50:33.510Z,3.88
2023-05-12T15:53:01.998Z,3.70
2023-05-12T15:55:29.962Z,3.77
2023-05-12T15:57:58.191Z,3.75
2023-05-12T16:00:25.901Z,3.75
2023-05-12T16:02:55.047Z,3.80
2023-05-12T16:05:24.038Z,3.92
2023-05-12T16:07:54.514Z,3.90
2023-05-12T16:10:22.696Z,3.90
2023-05-12T16:12:50.331Z,4.18
2023-05-12T16:15:18.162Z,4.15
2023-05-12T16:17:46.215Z,3.83
2023-05-12T16:20:15.389Z,3.77
2023-05-12T16:22:42.913Z,3.90
2023-05-12T16:25:11.187Z,3.95
2023-05-12T16:27:38.831Z,3.80
2023-05-12T16:30:07.702Z,4.22
2023-05-12T16:32:35.304Z,3.63
2023-05-12T16:35:03.036Z,3.80
2023-05-12T16:37:32.150Z,3.70
2023-05-12T16:39:59.853Z,3.80
2023-05-12T16:42:27.474Z,4.10
2023-05-12T16:44:55.529Z,3.90
2023-05-12T16:47:23.132Z,3.70
2023-05-12T16:49:53.193Z,3.90
2023-05-12T16:52:20.776Z,3.75
2023-05-12T16:54:49.647Z,4.13
2023-05-12T16:57:18.144Z,3.70
2023-05-12T16:59:45.812Z,3.85
2023-05-12T17:02:13.473Z,3.95
2023-05-12T17:04:41.457Z,3.88
2023-05-12T17:07:09.285Z,3.80
2023-05-12T17:09:36.884Z,4.60
2023-05-12T17:12:06.736Z,3.58
2023-05-12T17:14:35.537Z,3.60
2023-05-12T17:17:03.344Z,3.58
2023-05-12T17:19:30.912Z,3.80
2023-05-12T17:21:58.553Z,3.80
2023-05-12T17:24:26.710Z,3.80
2023-05-12T17:26:54.804Z,4.10
2023-05-12T17:29:23.667Z,3.67
2023-05-12T17:31:51.299Z,3.53
2023-05-12T17:34:18.883Z,4.30
2023-05-12T17:36:46.457Z,3.70
2023-05-12T17:39:15.879Z,4.10
2023-05-12T17:41:43.845Z,4.15
2023-05-12T17:44:11.396Z,4.20
2023-05-12T17:46:40.404Z,3.83
2023-05-12T17:49:08.077Z,3.70
2023-05-12T17:51:36.259Z,3.30
2023-05-12T17:54:04.150Z,3.40
2023-05-12T17:56:31.676Z,3.58
2023-05-12T17:58:59.219Z,3.83
2023-05-12T18:01:26.866Z,3.60
2023-05-12T18:03:55.773Z,3.90
2023-05-12T18:06:24.235Z,3.70
2023-05-12T18:08:52.186Z,3.90
2023-05-12T18:11:19.784Z,3.83
2023-05-12T18:13:47.175Z,3.85
2023-05-12T18:16:27.584Z,4.18
2023-05-12T18:18:58.445Z,3.50
2023-05-12T18:21:26.218Z,3.88
2023-05-12T18:23:53.756Z,4.73
2023-05-12T18:26:21.373Z,4.30
2023-05-12T18:28:48.971Z,4.32
2023-05-12T18:31:19.229Z,3.85
2023-05-12T18:33:47.534Z,4.45
2023-05-12T18:36:16.627Z,4.20
2023-05-12T18:38:44.473Z,4.72
2023-05-12T18:41:12.806Z,4.30
2023-05-12T18:43:40.433Z,6.20
2023-05-12T18:46:07.968Z,7.78
2023-05-12T18:48:35.513Z,34.20
2023-05-12T18:51:03.057Z,5.03
2023-05-12T18:53:31.894Z,4.68
2023-05-12T18:55:59.432Z,4.90
2023-05-12T18:58:26.996Z,4.40
2023-05-12T19:00:54.583Z,4.80
2023-05-12T19:03:22.240Z,4.38
2023-05-12T19:05:49.840Z,4.25
2023-05-12T19:08:18.996Z,4.63
2023-05-12T19:10:48.514Z,4.38
2023-05-12T19:13:16.064Z,4.60
2023-05-12T19:15:43.607Z,4.68
2023-05-12T19:18:11.353Z,182.68
2023-05-12T19:20:39.033Z,112.72
2023-05-12T19:23:07.014Z,93.82
2023-05-12T19:25:35.288Z,134.00
2023-05-12T19:28:04.559Z,12.73
2023-05-12T19:30:32.229Z,4.75
2023-05-12T19:32:59.805Z,6.75
2023-05-12T19:35:27.387Z,7.57
2023-05-12T19:37:54.969Z,5.43
2023-05-12T19:40:22.468Z,9.50
2023-05-12T19:42:50.303Z,8.90
2023-05-12T19:45:19.545Z,5.72
2023-05-12T19:47:47.323Z,5.05
2023-05-12T19:50:14.943Z,4.63
2023-05-12T19:52:42.511Z,5.22
2023-05-12T19:55:10.307Z,4.97
2023-05-12T19:57:38.142Z,5.40
2023-05-12T20:00:07.026Z,5.25
2023-05-12T20:02:41.557Z,5.03
2023-05-12T20:05:10.050Z,5.03
2023-05-12T20:07:37.566Z,5.30
2023-05-12T20:10:05.649Z,5.00
2023-05-12T20:12:33.166Z,6.88
2023-05-12T20:15:00.799Z,5.20
2023-05-12T20:17:28.437Z,5.45
2023-05-12T20:19:57.357Z,5.47
2023-05-12T20:22:24.962Z,5.15
2023-05-12T20:24:52.467Z,5.57
2023-05-12T20:27:19.984Z,5.00
2023-05-12T20:29:47.586Z,5.53
2023-05-12T20:32:15.063Z,4.97
2023-05-12T20:34:42.713Z,5.20
2023-05-12T20:37:11.603Z,5.25
2023-05-12T20:39:39.142Z,5.60
2023-05-12T20:42:09.906Z,5.18
2023-05-12T20:44:37.682Z,5.07
2023-05-12T20:47:05.583Z,5.25
2023-05-12T20:49:33.182Z,5.60
2023-05-12T20:52:00.783Z,5.00
2023-05-12T20:54:29.626Z,5.55
2023-05-12T20:56:57.179Z,5.47
2023-05-12T20:59:25.358Z,5.35
2023-05-12T21:01:52.906Z,5.50
2023-05-12T21:04:20.542Z,5.70
2023-05-12T21:06:48.050Z,5.60
2023-05-12T21:09:15.595Z,5.65
2023-05-12T21:11:44.467Z,5.53
2023-05-12T21:14:12.036Z,5.50
2023-05-12T21:16:39.669Z,5.70
2023-05-12T21:19:07.443Z,5.78
2023-05-12T21:21:35.295Z,5.40
2023-05-12T21:24:02.871Z,5.70
2023-05-12T21:26:30.670Z,5.72
2023-05-12T21:29:02.673Z,5.50
2023-05-12T21:31:30.258Z,5.80
2023-05-12T21:33:57.862Z,5.50
2023-05-12T21:36:25.534Z,5.75
2023-05-12T21:38:53.071Z,5.68
2023-05-12T21:41:21.349Z,5.93
2023-05-12T21:43:48.907Z,5.50
2023-05-12T21:46:17.894Z,6.05
2023-05-12T21:48:45.530Z,5.90
2023-05-12T21:51:13.151Z,5.30
2023-05-12T21:53:40.710Z,5.50
2023-05-12T21:56:08.537Z,5.93
2023-05-12T21:58:36.886Z,5.43
2023-05-12T22:01:04.494Z,5.72
2023-05-12T22:03:33.442Z,5.38
2023-05-12T22:06:00.971Z,6.03
2023-05-12T22:08:28.540Z,6.03
2023-05-12T22:10:57.294Z,5.82
2023-05-12T22:13:24.842Z,6.18
2023-05-12T22:15:53.357Z,5.60
2023-05-12T22:18:21.116Z,6.10
2023-05-12T22:20:50.043Z,6.60
2023-05-12T22:23:17.728Z,6.00
2023-05-12T22:25:45.242Z,5.93
2023-05-12T22:28:12.850Z,5.93
2023-05-12T22:30:41.674Z,5.47
2023-05-12T22:33:09.401Z,6.00
2023-05-12T22:35:36.967Z,5.93
2023-05-12T22:38:05.857Z,5.93
2023-05-12T22:40:33.663Z,5.80
2023-05-12T22:43:01.200Z,6.03
2023-05-12T22:45:29.173Z,5.82
2023-05-12T22:47:56.686Z,5.85
2023-05-12T22:50:24.620Z,5.63
2023-05-12T22:52:56.934Z,5.82
2023-05-12T22:55:28.144Z,5.73
2023-05-12T22:57:55.717Z,5.55
2023-05-12T23:00:23.428Z,6.03
2023-05-12T23:02:51.198Z,6.00
2023-05-12T23:05:18.857Z,6.22
2023-05-12T23:07:46.396Z,6.20
2023-05-12T23:10:13.980Z,5.90
2023-05-12T23:12:42.890Z,6.05
2023-05-12T23:15:11.134Z,6.03
2023-05-12T23:17:38.689Z,6.47
2023-05-12T23:20:07.795Z,6.20
2023-05-12T23:22:35.390Z,5.50
2023-05-12T23:25:02.929Z,5.90
2023-05-12T23:27:30.509Z,6.00
2023-05-12T23:30:00.488Z,6.40
2023-05-12T23:32:28.276Z,5.80
2023-05-12T23:34:56.325Z,6.40
2023-05-12T23:37:24.456Z,5.70
2023-05-12T23:39:52.021Z,6.47
2023-05-12T23:42:19.570Z,5.90
2023-05-12T23:44:47.062Z,6.27
2023-05-12T23:47:15.987Z,6.10
2023-05-12T23:49:43.539Z,5.78
2023-05-12T23:52:11.142Z,6.78
2023-05-12T23:54:38.698Z,6.30
2023-05-12T23:57:06.492Z,6.47
2023-05-12T23:59:34.084Z,6.40
